createdAt,value
2018-07-10T00:02:34.972Z,76.54
2018-07-10T00:07:18.743Z,76.28
2018-07-10T00:12:05.822Z,75.66
2018-07-10T00:14:34.435Z,76.49
2018-07-10T00:17:03.020Z,76.45
2018-07-10T00:19:32.318Z,76.08
2018-07-10T00:22:01.059Z,76.42
2018-07-10T00:24:29.689Z,76.63
2018-07-10T00:26:58.476Z,76.80
2018-07-10T00:29:27.058Z,76.26
2018-07-10T00:31:55.592Z,76.69
2018-07-10T00:34:24.282Z,77.02
2018-07-10T00:36:53.114Z,76.77
2018-07-10T00:39:21.702Z,77.23
2018-07-10T00:41:50.514Z,77.00
2018-07-10T00:44:19.114Z,76.97
2018-07-10T00:46:47.707Z,76.48
2018-07-10T00:49:16.395Z,77.17
2018-07-10T00:51:45.123Z,77.27
2018-07-10T00:54:13.750Z,77.22
2018-07-10T00:56:42.427Z,76.58
2018-07-10T00:59:11.014Z,77.17
2018-07-10T01:01:39.665Z,76.51
2018-07-10T01:04:08.959Z,77.08
2018-07-10T01:06:38.404Z,77.32
2018-07-10T01:09:08.015Z,77.39
2018-07-10T01:11:36.757Z,76.91
2018-07-10T01:14:05.483Z,76.83
2018-07-10T01:16:36.690Z,77.18
2018-07-10T01:19:21.245Z,76.78
2018-07-10T01:21:49.943Z,77.07
2018-07-10T01:24:18.998Z,77.08
2018-07-10T01:26:49.122Z,76.90
2018-07-10T01:29:23.256Z,77.21
2018-07-10T01:31:54.967Z,77.21
2018-07-10T01:34:24.146Z,77.41
2018-07-10T01:36:53.582Z,76.93
2018-07-10T01:39:22.388Z,76.73
2018-07-10T01:41:51.136Z,77.07
2018-07-10T01:44:19.687Z,76.14
2018-07-10T01:46:48.357Z,76.77
2018-07-10T01:49:17.019Z,76.51
2018-07-10T01:51:45.725Z,76.44
2018-07-10T01:54:14.411Z,76.46
2018-07-10T01:56:43.023Z,76.23
2018-07-10T01:59:11.740Z,76.39
2018-07-10T02:01:41.286Z,76.05
2018-07-10T02:04:09.974Z,75.84
2018-07-10T02:06:38.818Z,76.34
2018-07-10T02:09:07.548Z,76.65
2018-07-10T02:11:36.170Z,76.80
2018-07-10T02:14:04.861Z,75.94
2018-07-10T02:16:33.500Z,77.49
2018-07-10T02:19:02.159Z,76.32
2018-07-10T02:21:30.977Z,77.46
2018-07-10T02:23:59.618Z,77.26
2018-07-10T02:26:28.753Z,77.58
2018-07-10T02:28:58.056Z,77.78
2018-07-10T02:31:26.844Z,77.96
2018-07-10T02:33:55.634Z,77.71
2018-07-10T02:36:25.074Z,77.42
2018-07-10T02:38:56.055Z,77.77
2018-07-10T02:41:25.062Z,78.14
2018-07-10T02:44:01.752Z,78.01
2018-07-10T02:46:32.257Z,78.50
2018-07-10T02:49:13.442Z,78.48
2018-07-10T02:52:17.916Z,79.05
2018-07-10T02:54:46.518Z,79.06
2018-07-10T02:57:15.306Z,79.27
2018-07-10T02:59:44.478Z,78.18
2018-07-10T03:02:20.702Z,78.44
2018-07-10T03:04:50.782Z,78.61
2018-07-10T03:07:19.601Z,78.28
2018-07-10T03:09:48.758Z,78.56
2018-07-10T03:12:17.723Z,78.92
2018-07-10T03:14:46.376Z,79.15
2018-07-10T03:17:19.214Z,78.92
2018-07-10T03:19:47.841Z,79.62
2018-07-10T03:22:17.370Z,78.88
2018-07-10T03:24:46.645Z,78.42
2018-07-10T03:27:15.433Z,77.92
2018-07-10T03:29:44.775Z,78.07
2018-07-10T03:32:13.418Z,77.93
2018-07-10T03:34:42.151Z,77.32
2018-07-10T03:37:10.762Z,77.68
2018-07-10T03:39:41.658Z,77.51
2018-07-10T03:42:11.066Z,77.26
2018-07-10T03:44:43.271Z,76.62
2018-07-10T03:47:13.737Z,76.74
2018-07-10T03:49:42.978Z,76.80
2018-07-10T03:52:12.263Z,76.80
2018-07-10T03:54:42.689Z,75.97
2018-07-10T03:57:13.526Z,76.00
2018-07-10T03:59:46.418Z,75.74
2018-07-10T04:02:15.542Z,75.83
2018-07-10T04:04:44.291Z,76.39
2018-07-10T04:07:13.034Z,75.70
2018-07-10T04:09:41.720Z,75.24
2018-07-10T04:12:10.405Z,76.36
2018-07-10T04:14:38.983Z,76.29
2018-07-10T04:17:08.493Z,76.52
2018-07-10T04:19:37.178Z,76.07
2018-07-10T04:22:05.966Z,76.14
2018-07-10T04:24:34.753Z,76.41
2018-07-10T04:27:08.148Z,76.04
2018-07-10T04:29:49.115Z,75.99
2018-07-10T04:32:17.812Z,76.07
2018-07-10T04:34:49.052Z,76.34
2018-07-10T04:37:17.727Z,76.32
2018-07-10T04:39:46.526Z,76.18
2018-07-10T04:42:34.102Z,75.89
2018-07-10T04:45:05.645Z,75.64
2018-07-10T04:47:47.747Z,76.07
2018-07-10T04:50:49.466Z,75.41
2018-07-10T04:53:53.325Z,75.17
2018-07-10T04:56:21.866Z,74.59
2018-07-10T04:58:54.567Z,74.72
2018-07-10T05:01:30.697Z,74.70
2018-07-10T05:04:00.483Z,73.64
2018-07-10T05:06:30.374Z,73.59
2018-07-10T05:08:59.590Z,73.09
2018-07-10T05:11:29.261Z,73.19
2018-07-10T05:13:57.973Z,72.99
2018-07-10T05:16:27.299Z,72.85
2018-07-10T05:18:57.102Z,72.42
2018-07-10T05:21:25.787Z,72.30
2018-07-10T05:23:54.447Z,71.88
2018-07-10T05:26:23.251Z,71.53
2018-07-10T05:28:53.159Z,71.04
2018-07-10T05:31:21.862Z,71.24
2018-07-10T05:33:51.751Z,70.95
2018-07-10T05:36:22.316Z,70.84
2018-07-10T05:39:02.342Z,70.77
2018-07-10T05:41:31.165Z,70.10
2018-07-10T05:43:59.750Z,70.44
2018-07-10T05:46:28.491Z,69.92
2018-07-10T05:49:03.859Z,70.14
2018-07-10T05:51:34.713Z,69.89
2018-07-10T05:54:07.558Z,69.32
2018-07-10T05:56:36.794Z,69.34
2018-07-10T05:59:06.810Z,68.90
2018-07-10T06:01:36.981Z,69.17
2018-07-10T06:04:06.008Z,68.95
2018-07-10T06:06:34.643Z,69.28
2018-07-10T06:09:04.035Z,69.22
2018-07-10T06:11:32.735Z,69.31
2018-07-10T06:14:01.696Z,68.96
2018-07-10T06:16:30.431Z,69.48
2018-07-10T06:18:59.262Z,68.62
2018-07-10T06:21:41.006Z,68.42
2018-07-10T06:24:12.453Z,68.25
2018-07-10T06:26:42.771Z,68.31
2018-07-10T06:29:13.119Z,67.81
2018-07-10T06:31:52.242Z,66.94
2018-07-10T06:34:25.693Z,68.00
2018-07-10T06:37:03.350Z,67.33
2018-07-10T06:39:32.103Z,66.71
2018-07-10T06:42:04.893Z,66.62
2018-07-10T06:44:36.674Z,66.17
2018-07-10T06:47:26.036Z,67.12
2018-07-10T06:49:54.840Z,66.28
2018-07-10T06:52:24.083Z,66.27
2018-07-10T06:55:09.806Z,66.41
2018-07-10T06:57:42.695Z,65.77
2018-07-10T07:00:12.092Z,65.38
2018-07-10T07:02:41.223Z,65.85
2018-07-10T07:05:10.215Z,64.93
2018-07-10T07:07:39.980Z,65.00
2018-07-10T07:10:11.214Z,64.11
2018-07-10T07:12:40.629Z,64.83
2018-07-10T07:15:12.066Z,64.91
2018-07-10T07:17:44.513Z,64.36
2018-07-10T07:20:13.899Z,64.47
2018-07-10T07:22:42.685Z,64.71
2018-07-10T07:25:11.370Z,63.96
2018-07-10T07:27:40.159Z,64.25
2018-07-10T07:30:08.845Z,64.43
2018-07-10T07:32:37.938Z,63.50
2018-07-10T07:35:06.702Z,62.81
2018-07-10T07:37:38.107Z,62.05
2018-07-10T07:40:06.762Z,62.90
2018-07-10T07:42:35.534Z,61.43
2018-07-10T07:45:04.365Z,60.91
2018-07-10T07:47:33.021Z,61.33
2018-07-10T07:50:01.602Z,60.64
2018-07-10T07:52:31.606Z,60.63
2018-07-10T07:55:02.341Z,59.73
2018-07-10T07:57:30.936Z,60.15
2018-07-10T07:59:59.520Z,60.08
2018-07-10T08:02:28.254Z,60.08
2018-07-10T08:04:56.885Z,58.70
2018-07-10T08:07:26.641Z,57.96
2018-07-10T08:09:56.666Z,58.45
2018-07-10T08:12:26.313Z,57.61
2018-07-10T08:14:55.520Z,56.59
2018-07-10T08:17:25.231Z,57.93
2018-07-10T08:19:56.671Z,55.74
2018-07-10T08:22:26.448Z,56.12
2018-07-10T08:24:55.367Z,55.33
2018-07-10T08:27:24.788Z,55.68
2018-07-10T08:29:54.446Z,54.93
2018-07-10T08:32:23.385Z,54.34
2018-07-10T08:34:52.247Z,54.69
2018-07-10T08:37:20.964Z,54.55
2018-07-10T08:39:49.747Z,54.41
2018-07-10T08:42:19.179Z,53.58
2018-07-10T08:44:47.875Z,54.65
2018-07-10T08:47:16.621Z,54.29
2018-07-10T08:49:45.301Z,53.36
2018-07-10T08:52:14.250Z,52.55
2018-07-10T08:54:42.986Z,52.44
2018-07-10T08:57:12.080Z,51.72
2018-07-10T08:59:40.666Z,53.41
2018-07-10T09:02:09.451Z,52.18
2018-07-10T09:04:38.915Z,52.31
2018-07-10T09:07:08.152Z,51.63
2018-07-10T09:09:36.837Z,52.12
2018-07-10T09:12:05.625Z,50.10
2018-07-10T09:14:34.251Z,50.68
2018-07-10T09:17:03.271Z,48.76
2018-07-10T09:19:32.247Z,49.22
2018-07-10T09:22:04.093Z,49.99
2018-07-10T09:24:34.765Z,49.65
2018-07-10T09:27:07.244Z,47.85
2018-07-10T09:29:36.152Z,48.81
2018-07-10T09:32:04.873Z,46.63
2018-07-10T09:34:33.578Z,46.89
2018-07-10T09:37:02.201Z,47.42
2018-07-10T09:39:30.826Z,45.81
2018-07-10T09:42:00.072Z,46.38
2018-07-10T09:44:28.760Z,45.83
2018-07-10T09:46:57.532Z,45.92
2018-07-10T09:49:26.146Z,46.57
2018-07-10T09:51:54.834Z,46.06
2018-07-10T09:54:23.421Z,45.22
2018-07-10T09:56:52.099Z,44.98
2018-07-10T09:59:20.747Z,45.66
2018-07-10T10:01:50.881Z,45.88
2018-07-10T10:04:19.628Z,44.60
2018-07-10T10:06:48.273Z,45.20
2018-07-10T10:09:16.901Z,44.01
2018-07-10T10:11:45.643Z,44.53
2018-07-10T10:14:14.226Z,44.60
2018-07-10T10:16:42.867Z,45.21
2018-07-10T10:19:11.594Z,44.38
2018-07-10T10:21:40.443Z,44.38
2018-07-10T10:24:09.141Z,43.36
2018-07-10T10:26:37.735Z,43.01
2018-07-10T10:29:06.410Z,43.86
2018-07-10T10:31:35.127Z,42.58
2018-07-10T10:34:03.975Z,41.94
2018-07-10T10:36:32.767Z,44.44
2018-07-10T10:39:01.593Z,43.48
2018-07-10T10:41:30.472Z,43.94
2018-07-10T10:43:59.270Z,43.31
2018-07-10T10:46:27.959Z,43.29
2018-07-10T10:48:56.745Z,43.94
2018-07-10T10:51:25.433Z,42.89
2018-07-10T10:53:54.218Z,41.51
2018-07-10T10:56:23.006Z,40.33
2018-07-10T10:58:51.742Z,42.45
2018-07-10T11:01:21.249Z,40.77
2018-07-10T11:03:50.052Z,41.11
2018-07-10T11:06:18.753Z,41.61
2018-07-10T11:08:47.351Z,40.99
2018-07-10T11:11:15.946Z,41.52
2018-07-10T11:13:44.927Z,41.71
2018-07-10T11:16:13.589Z,40.41
2018-07-10T11:18:50.106Z,42.75
2018-07-10T11:22:31.263Z,40.60
2018-07-10T11:25:04.379Z,41.63
2018-07-10T11:27:43.343Z,41.64
2018-07-10T11:30:12.015Z,40.98
2018-07-10T11:32:40.750Z,40.21
2018-07-10T11:35:09.435Z,41.36
2018-07-10T11:37:38.735Z,41.16
2018-07-10T11:40:07.729Z,42.20
2018-07-10T11:42:37.171Z,41.57
2018-07-10T11:45:05.900Z,40.86
2018-07-10T11:47:34.546Z,39.61
2018-07-10T11:50:03.235Z,39.32
2018-07-10T11:52:32.051Z,38.97
2018-07-10T11:55:01.584Z,39.47
2018-07-10T11:57:30.167Z,38.97
2018-07-10T11:59:59.005Z,39.35
2018-07-10T12:02:37.527Z,40.10
2018-07-10T12:05:06.207Z,40.08
2018-07-10T12:07:37.238Z,40.61
2018-07-10T12:10:17.295Z,39.49
2018-07-10T12:12:46.791Z,40.11
2018-07-10T12:15:15.692Z,38.22
2018-07-10T12:17:46.191Z,39.46
2018-07-10T12:20:14.786Z,38.96
2018-07-10T12:22:44.199Z,37.88
2018-07-10T12:25:13.366Z,39.94
2018-07-10T12:27:42.036Z,39.64
2018-07-10T12:30:10.660Z,39.67
2018-07-10T12:32:40.224Z,38.61
2018-07-10T12:35:09.887Z,40.06
2018-07-10T12:37:40.714Z,38.68
2018-07-10T12:40:10.595Z,38.72
2018-07-10T12:42:40.435Z,38.55
2018-07-10T12:45:10.363Z,38.80
2018-07-10T12:47:38.939Z,36.97
2018-07-10T12:50:08.442Z,36.77
2018-07-10T12:52:37.903Z,38.49
2018-07-10T12:55:06.790Z,38.11
2018-07-10T12:57:43.053Z,37.52
2018-07-10T13:00:11.989Z,38.03
2018-07-10T13:02:50.407Z,38.64
2018-07-10T13:05:20.739Z,38.42
2018-07-10T13:07:49.466Z,37.38
2018-07-10T13:10:18.547Z,38.42
2018-07-10T13:12:47.249Z,37.67
2018-07-10T13:15:15.980Z,38.10
2018-07-10T13:17:47.384Z,38.32
2018-07-10T13:20:17.276Z,37.99
2018-07-10T13:22:46.027Z,38.17
2018-07-10T13:25:14.755Z,38.63
2018-07-10T13:27:43.358Z,39.36
2018-07-10T13:30:12.863Z,38.58
2018-07-10T13:32:41.648Z,39.20
2018-07-10T13:35:10.433Z,38.71
2018-07-10T13:37:41.817Z,38.38
2018-07-10T13:40:10.572Z,38.81
2018-07-10T13:43:00.762Z,39.69
2018-07-10T13:45:30.882Z,39.49
2018-07-10T13:47:59.562Z,39.18
2018-07-10T13:50:31.279Z,38.17
2018-07-10T13:53:01.300Z,38.14
2018-07-10T13:55:30.799Z,38.55
2018-07-10T13:58:07.916Z,38.13
2018-07-10T14:00:38.574Z,37.24
2018-07-10T14:03:07.251Z,37.50
2018-07-10T14:05:35.910Z,36.57
2018-07-10T14:08:04.611Z,37.45
2018-07-10T14:10:34.935Z,36.26
2018-07-10T14:13:04.343Z,35.72
2018-07-10T14:15:33.021Z,35.96
2018-07-10T14:18:02.492Z,34.59
2018-07-10T14:20:38.901Z,36.31
2018-07-10T14:23:07.679Z,36.16
2018-07-10T14:25:36.530Z,35.59
2018-07-10T14:28:05.207Z,35.83
2018-07-10T14:30:33.938Z,36.22
2018-07-10T14:33:02.623Z,36.11
2018-07-10T14:35:32.438Z,35.57
2018-07-10T14:38:03.663Z,36.02
2018-07-10T14:40:32.366Z,36.82
2018-07-10T14:43:01.256Z,36.74
2018-07-10T14:45:30.044Z,36.73
2018-07-10T14:48:00.031Z,35.88
2018-07-10T14:50:29.053Z,35.54
2018-07-10T14:52:57.845Z,34.77
2018-07-10T14:55:26.466Z,34.51
2018-07-10T14:57:55.475Z,34.86
2018-07-10T15:00:24.202Z,35.08
2018-07-10T15:02:52.887Z,34.09
2018-07-10T15:05:22.135Z,35.45
2018-07-10T15:07:50.873Z,34.16
2018-07-10T15:10:19.614Z,34.30
2018-07-10T15:12:48.290Z,34.94
2018-07-10T15:15:16.921Z,34.91
2018-07-10T15:17:50.734Z,35.63
2018-07-10T15:20:19.420Z,35.62
2018-07-10T15:22:48.670Z,35.03
2018-07-10T15:25:17.405Z,35.54
2018-07-10T15:27:45.934Z,35.64
2018-07-10T15:30:14.555Z,35.79
2018-07-10T15:32:43.359Z,34.96
2018-07-10T15:35:12.019Z,34.52
2018-07-10T15:37:40.830Z,34.15
2018-07-10T15:40:09.514Z,35.64
2018-07-10T15:42:38.142Z,35.13
2018-07-10T15:45:06.735Z,35.98
2018-07-10T15:47:35.469Z,34.86
2018-07-10T15:50:04.257Z,35.36
2018-07-10T15:52:32.942Z,36.09
2018-07-10T15:55:01.627Z,35.79
2018-07-10T15:57:30.313Z,35.28
2018-07-10T15:59:58.998Z,34.94
2018-07-10T16:02:27.683Z,36.05
2018-07-10T16:04:56.369Z,33.96
2018-07-10T16:07:25.107Z,35.05
2018-07-10T16:09:53.815Z,33.65
2018-07-10T16:12:23.622Z,34.57
2018-07-10T16:14:57.057Z,33.93
2018-07-10T16:17:30.397Z,34.52
2018-07-10T16:20:08.544Z,34.36
2018-07-10T16:22:42.282Z,34.74
2018-07-10T16:25:15.857Z,34.17
2018-07-10T16:27:46.964Z,33.83
2018-07-10T16:30:21.061Z,33.79
2018-07-10T16:32:49.843Z,34.24
2018-07-10T16:35:19.530Z,33.17
2018-07-10T16:37:48.785Z,33.39
2018-07-10T16:40:17.488Z,33.42
2018-07-10T16:42:55.282Z,34.45
2018-07-10T16:45:35.623Z,34.26
2018-07-10T16:48:22.004Z,34.05
2018-07-10T16:51:58.047Z,34.27
2018-07-10T16:54:26.895Z,34.51
2018-07-10T16:56:55.585Z,34.38
2018-07-10T16:59:24.170Z,34.80
2018-07-10T17:01:52.956Z,34.73
2018-07-10T17:04:21.558Z,34.47
2018-07-10T17:06:50.154Z,35.21
2018-07-10T17:09:18.870Z,34.53
2018-07-10T17:11:47.597Z,34.86
2018-07-10T17:14:16.283Z,35.11
2018-07-10T17:16:45.071Z,36.20
2018-07-10T17:19:13.638Z,35.04
2018-07-10T17:21:42.537Z,34.71
2018-07-10T17:24:11.328Z,35.08
2018-07-10T17:26:40.340Z,35.47
2018-07-10T17:29:11.619Z,35.07
2018-07-10T17:31:40.507Z,34.83
2018-07-10T17:34:09.299Z,34.79
2018-07-10T17:36:37.961Z,34.43
2018-07-10T17:39:07.107Z,35.08
2018-07-10T17:41:37.302Z,34.93
2018-07-10T17:44:08.954Z,35.42
2018-07-10T17:46:38.189Z,35.04
2018-07-10T17:49:06.928Z,35.60
2018-07-10T17:51:36.232Z,35.57
2018-07-10T17:54:05.218Z,35.64
2018-07-10T17:56:33.861Z,35.69
2018-07-10T17:59:05.112Z,35.57
2018-07-10T18:01:34.234Z,35.94
2018-07-10T18:04:02.993Z,35.39
2018-07-10T18:06:31.681Z,35.96
2018-07-10T18:09:00.468Z,36.49
2018-07-10T18:11:29.151Z,36.15
2018-07-10T18:13:57.936Z,36.69
2018-07-10T18:16:31.641Z,35.77
2018-07-10T18:19:00.202Z,36.91
2018-07-10T18:21:28.958Z,35.97
2018-07-10T18:23:57.696Z,36.35
2018-07-10T18:26:26.347Z,36.41
2018-07-10T18:28:55.066Z,36.67
2018-07-10T18:31:23.699Z,36.51
2018-07-10T18:33:52.250Z,36.99
2018-07-10T18:36:21.019Z,37.13
2018-07-10T18:38:50.063Z,36.91
2018-07-10T18:41:19.014Z,37.67
2018-07-10T18:43:47.680Z,37.38
2018-07-10T18:46:16.648Z,37.30
2018-07-10T18:48:45.365Z,37.32
2018-07-10T18:51:14.380Z,37.64
2018-07-10T18:53:43.149Z,37.68
2018-07-10T18:56:11.899Z,37.84
2018-07-10T18:59:00.384Z,38.00
2018-07-10T19:01:41.363Z,38.64
2018-07-10T19:04:10.011Z,38.58
2018-07-10T19:06:38.660Z,38.43
2018-07-10T19:09:07.414Z,38.27
2018-07-10T19:11:37.139Z,38.06
2018-07-10T19:14:05.911Z,38.44
2018-07-10T19:16:34.764Z,38.48
2018-07-10T19:19:05.533Z,38.11
2018-07-10T19:21:40.623Z,39.28
2018-07-10T19:24:26.303Z,39.42
2018-07-10T19:26:55.610Z,39.89
2018-07-10T19:29:47.177Z,40.81
2018-07-10T19:32:16.386Z,40.49
2018-07-10T19:34:45.726Z,40.28
2018-07-10T19:37:14.561Z,41.18
2018-07-10T19:39:43.247Z,42.02
2018-07-10T19:42:12.495Z,42.56
2018-07-10T19:44:41.340Z,42.19
2018-07-10T19:47:10.123Z,42.41
2018-07-10T19:49:39.216Z,43.81
2018-07-10T19:52:08.111Z,44.13
2018-07-10T19:54:37.088Z,44.04
2018-07-10T19:57:06.195Z,44.75
2018-07-10T19:59:34.889Z,44.28
2018-07-10T20:02:04.665Z,45.01
2018-07-10T20:04:39.254Z,44.73
2018-07-10T20:07:15.466Z,45.47
2018-07-10T20:09:50.202Z,44.90
2018-07-10T20:12:22.534Z,45.46
2018-07-10T20:15:02.603Z,45.03
2018-07-10T20:17:33.838Z,45.63
2018-07-10T20:20:13.146Z,46.18
2018-07-10T20:25:12.252Z,46.81
2018-07-10T20:27:55.543Z,47.46
2018-07-10T20:30:49.596Z,47.98
2018-07-10T20:33:32.887Z,48.27
2018-07-10T20:36:05.399Z,49.09
2018-07-10T20:38:34.215Z,49.20
2018-07-10T20:41:04.695Z,49.15
2018-07-10T20:43:37.967Z,49.37
2018-07-10T20:46:06.654Z,49.27
2018-07-10T20:48:43.215Z,49.89
2018-07-10T20:51:13.251Z,50.04
2018-07-10T20:54:23.669Z,50.66
2018-07-10T20:56:59.832Z,51.95
2018-07-10T20:59:45.419Z,51.79
2018-07-10T21:02:27.017Z,51.62
2018-07-10T21:05:12.219Z,52.42
2018-07-10T21:07:57.494Z,52.89
2018-07-10T21:10:59.355Z,52.83
2018-07-10T21:13:35.040Z,53.77
2018-07-10T21:16:10.748Z,53.55
2018-07-10T21:18:47.092Z,54.56
2018-07-10T21:22:26.852Z,54.47
2018-07-10T21:25:18.628Z,54.93
2018-07-10T21:28:03.921Z,54.84
2018-07-10T21:30:41.487Z,55.97
2018-07-10T21:33:23.703Z,55.76
2018-07-10T21:35:57.737Z,56.55
2018-07-10T21:39:06.099Z,56.36
2018-07-10T21:41:46.677Z,56.86
2018-07-10T21:44:38.631Z,57.11
2018-07-10T21:47:26.635Z,57.16
2018-07-10T21:49:56.858Z,56.75
2018-07-10T21:52:25.898Z,57.61
2018-07-10T21:54:54.584Z,57.86
2018-07-10T21:57:26.220Z,57.24
2018-07-10T21:59:57.534Z,58.36
2018-07-10T22:02:26.226Z,58.50
2018-07-10T22:04:57.530Z,57.87
2018-07-10T22:07:29.423Z,58.24
2018-07-10T22:12:43.542Z,58.45
2018-07-10T22:15:13.131Z,59.01
2018-07-10T22:17:42.921Z,58.03
2018-07-10T22:20:11.747Z,59.21
2018-07-10T22:22:40.534Z,59.11
2018-07-10T22:25:09.833Z,58.84
2018-07-10T22:27:40.847Z,59.00
2018-07-10T22:30:16.742Z,60.22
2018-07-10T22:32:50.587Z,60.83
2018-07-10T22:35:19.273Z,60.51
2018-07-10T22:37:47.903Z,60.06
2018-07-10T22:40:18.631Z,60.26
2018-07-10T22:42:47.649Z,60.56
2018-07-10T22:45:18.066Z,60.56
2018-07-10T22:47:46.693Z,62.78
2018-07-10T22:50:18.554Z,61.60
2018-07-10T22:53:00.550Z,63.01
2018-07-10T22:55:31.315Z,62.17
2018-07-10T22:58:05.024Z,62.99
2018-07-10T23:00:36.096Z,61.89
2018-07-10T23:03:19.052Z,63.09
2018-07-10T23:05:48.958Z,62.76
2018-07-10T23:08:19.921Z,63.37
2018-07-10T23:10:49.088Z,63.26
2018-07-10T23:13:18.610Z,64.63
2018-07-10T23:15:47.969Z,64.73
2018-07-10T23:18:17.045Z,64.55
2018-07-10T23:20:45.627Z,65.38
2018-07-10T23:23:15.295Z,65.09
2018-07-10T23:25:44.211Z,67.18
2018-07-10T23:28:12.855Z,67.00
2018-07-10T23:30:42.197Z,65.53
2018-07-10T23:33:18.737Z,65.84
2018-07-10T23:35:50.998Z,66.07
2018-07-10T23:38:42.315Z,66.31
2018-07-10T23:41:18.221Z,67.13
2018-07-10T23:43:48.671Z,66.42
2018-07-10T23:46:26.699Z,66.91
2018-07-10T23:49:00.210Z,66.06
2018-07-10T23:51:29.695Z,67.60
2018-07-10T23:53:58.394Z,67.71
2018-07-10T23:56:26.990Z,68.42
2018-07-10T23:58:55.675Z,70.97
